Time;durP1;ratioP1;P1;durP2;ratioP2;P2;SDS_P1;SDS_P2;PMS_P1;PMS_P2;Temp;Humidity;BMP_temperature;BMP_pressure;BME280_temperature;BME280_humidity;BME280_pressure;Samples;Min_cycle;Max_cycle;Signal;HPM_P1;HPM_P2
2022/04/20 00:01:46;;;;;;;54.65;22.55;;;;;;;;;;6129922;29;20439;-79
2022/04/20 00:04:47;;;;;;;65.15;24.42;;;;;;;;;;6146518;29;20431;-78
2022/04/20 00:07:47;;;;;;;70.22;24.67;;;;;;;;;;6129760;29;20034;-78
2022/04/20 00:10:47;;;;;;;74.63;25.08;;;;;;;;;;6133512;29;20391;-78
2022/04/20 00:13:47;;;;;;;55.28;22.60;;;;;;;;;;6146738;29;20538;-78
2022/04/20 00:16:47;;;;;;;48.00;18.23;;;;;;;;;;6128864;29;20046;-78
2022/04/20 00:19:48;;;;;;;34.45;16.98;;;;;;;;;;6146758;29;20066;-78
2022/04/20 00:22:48;;;;;;;35.17;15.38;;;;;;;;;;6146255;29;20033;-78
2022/04/20 00:25:48;;;;;;;36.65;14.57;;;;;;;;;;6146929;28;20030;-78
2022/04/20 00:28:48;;;;;;;28.45;14.02;;;;;;;;;;6146221;29;20051;-78
2022/04/20 00:31:49;;;;;;;34.72;12.80;;;;;;;;;;6129232;29;20058;-78
2022/04/20 00:34:49;;;;;;;25.33;11.77;;;;;;;;;;6146332;29;20059;-77
2022/04/20 00:37:49;;;;;;;31.38;13.32;;;;;;;;;;6129076;29;20019;-78
2022/04/20 00:40:50;;;;;;;25.58;11.75;;;;;;;;;;6146281;29;20019;-78
2022/04/20 00:43:50;;;;;;;26.40;11.18;;;;;;;;;;6146056;29;20019;-78
2022/04/20 00:46:52;;;;;;;26.65;11.57;;;;;;;;;;6129032;29;20081;-78
2022/04/20 00:49:52;;;;;;;31.92;12.52;;;;;;;;;;6146352;29;20023;-78
2022/04/20 00:52:52;;;;;;;33.65;14.10;;;;;;;;;;6144668;29;20062;-78
2022/04/20 00:55:52;;;;;;;39.17;15.10;;;;;;;;;;6127921;29;20087;-78
2022/04/20 00:58:53;;;;;;;40.33;14.90;;;;;;;;;;6125506;29;20122;-78
2022/04/20 01:01:55;;;;;;;34.38;13.38;;;;;;;;;;6126062;29;20262;-78
2022/04/20 01:04:55;;;;;;;26.67;11.57;;;;;;;;;;6143251;29;20020;-77
2022/04/20 01:07:55;;;;;;;33.97;15.02;;;;;;;;;;6135845;29;20538;-78
2022/04/20 01:10:55;;;;;;;32.00;13.32;;;;;;;;;;6141870;29;20086;-78
2022/04/20 01:13:56;;;;;;;31.75;15.80;;;;;;;;;;6142824;29;20026;-78
2022/04/20 01:16:56;;;;;;;43.47;15.13;;;;;;;;;;6142986;29;20034;-78
2022/04/20 01:19:57;;;;;;;42.80;17.80;;;;;;;;;;6125752;29;20034;-78
2022/04/20 01:22:57;;;;;;;36.88;16.10;;;;;;;;;;6142604;29;20019;-77
2022/04/20 01:25:57;;;;;;;32.67;14.50;;;;;;;;;;6144789;28;20035;-77
2022/04/20 01:28:58;;;;;;;39.13;13.83;;;;;;;;;;6143655;28;20165;-77
2022/04/20 01:31:58;;;;;;;30.75;13.05;;;;;;;;;;6147591;29;20267;-76
2022/04/20 01:34:59;;;;;;;30.23;12.73;;;;;;;;;;6146874;29;20029;-76
2022/04/20 01:37:59;;;;;;;31.77;14.75;;;;;;;;;;6130138;29;20078;-76
2022/04/20 01:40:59;;;;;;;37.20;15.13;;;;;;;;;;6145354;29;20067;-76
2022/04/20 01:43:59;;;;;;;34.30;14.68;;;;;;;;;;6146278;29;20015;-76
2022/04/20 01:46:59;;;;;;;34.97;14.23;;;;;;;;;;6146655;29;20098;-76
2022/04/20 01:50:00;;;;;;;34.92;16.48;;;;;;;;;;6146945;29;20098;-76
2022/04/20 01:53:00;;;;;;;40.17;16.67;;;;;;;;;;6144540;29;20026;-76
2022/04/20 01:56:00;;;;;;;36.67;15.93;;;;;;;;;;6147194;28;20027;-76
2022/04/20 01:59:00;;;;;;;35.95;14.35;;;;;;;;;;6146604;29;20368;-76
2022/04/20 02:05:20;;;;;;;43.95;16.40;;;;;;;;;;6149661;29;20498;-76
2022/04/20 02:08:20;;;;;;;37.58;14.63;;;;;;;;;;6150178;29;20029;-76
2022/04/20 02:11:20;;;;;;;35.75;15.57;;;;;;;;;;6139809;29;20082;-76
2022/04/20 02:14:20;;;;;;;38.80;16.42;;;;;;;;;;6149243;29;20031;-76
2022/04/20 02:17:21;;;;;;;30.73;13.95;;;;;;;;;;6149204;29;20323;-76
2022/04/20 02:20:21;;;;;;;31.23;14.13;;;;;;;;;;6149405;29;20008;-76
2022/04/20 02:23:21;;;;;;;30.40;13.95;;;;;;;;;;6148698;29;20054;-76
2022/04/20 02:26:22;;;;;;;30.25;14.48;;;;;;;;;;6149352;28;20075;-76
2022/04/20 02:29:22;;;;;;;38.50;14.30;;;;;;;;;;6149187;29;20368;-77
2022/04/20 02:32:22;;;;;;;36.83;15.55;;;;;;;;;;6149253;29;20023;-77
2022/04/20 02:35:22;;;;;;;36.58;14.25;;;;;;;;;;6137057;29;20034;-76
2022/04/20 02:38:23;;;;;;;37.38;14.45;;;;;;;;;;6131661;29;20027;-77
2022/04/20 02:41:24;;;;;;;35.65;16.65;;;;;;;;;;6148910;28;20011;-77
2022/04/20 02:44:24;;;;;;;35.25;13.85;;;;;;;;;;6148895;29;20459;-77
2022/04/20 02:47:24;;;;;;;31.52;14.32;;;;;;;;;;6149445;29;20489;-77
2022/04/20 02:50:24;;;;;;;38.50;15.15;;;;;;;;;;6131332;29;20110;-77
2022/04/20 02:53:25;;;;;;;37.30;15.38;;;;;;;;;;6148607;29;20027;-77
2022/04/20 02:56:25;;;;;;;32.45;14.60;;;;;;;;;;6149099;28;20029;-78
2022/04/20 02:59:25;;;;;;;40.55;14.77;;;;;;;;;;6148488;29;20067;-77
2022/04/20 03:02:25;;;;;;;37.45;13.82;;;;;;;;;;6148669;29;20027;-78
2022/04/20 03:05:25;;;;;;;39.10;14.77;;;;;;;;;;6130746;29;20019;-78
2022/04/20 03:08:26;;;;;;;34.50;14.60;;;;;;;;;;6148391;29;20031;-78
2022/04/20 03:11:27;;;;;;;39.33;14.85;;;;;;;;;;6130963;29;20033;-78
2022/04/20 03:14:27;;;;;;;38.97;16.75;;;;;;;;;;6148314;29;20497;-77
2022/04/20 03:17:27;;;;;;;37.65;16.73;;;;;;;;;;6141012;28;20070;-77
2022/04/20 03:20:27;;;;;;;35.72;16.98;;;;;;;;;;6146816;28;20328;-77
2022/04/20 03:23:28;;;;;;;45.28;17.77;;;;;;;;;;6147709;29;20382;-77
2022/04/20 03:26:29;;;;;;;38.17;16.65;;;;;;;;;;6147884;28;20039;-77
2022/04/20 03:29:29;;;;;;;45.25;16.60;;;;;;;;;;6130924;29;20433;-76
2022/04/20 03:32:29;;;;;;;40.83;17.27;;;;;;;;;;6147579;29;20494;-76
2022/04/20 03:35:29;;;;;;;43.40;16.33;;;;;;;;;;6136375;29;20019;-76
2022/04/20 03:38:30;;;;;;;34.17;16.38;;;;;;;;;;6147558;29;20467;-76
2022/04/20 03:41:30;;;;;;;35.38;16.13;;;;;;;;;;6147095;29;20491;-76
2022/04/20 03:44:31;;;;;;;40.92;16.25;;;;;;;;;;6145822;29;20015;-76
2022/04/20 03:47:31;;;;;;;38.65;15.95;;;;;;;;;;6146677;29;20029;-76
2022/04/20 03:50:32;;;;;;;32.72;15.82;;;;;;;;;;6147236;28;20026;-76
2022/04/20 03:53:33;;;;;;;33.42;16.08;;;;;;;;;;6146381;29;20027;-76
2022/04/20 03:59:51;;;;;;;33.28;13.65;;;;;;;;;;6146693;29;20035;-76
2022/04/20 04:02:52;;;;;;;38.33;17.60;;;;;;;;;;6147287;29;20035;-77
2022/04/20 04:05:52;;;;;;;35.63;16.60;;;;;;;;;;6146821;29;20398;-76
2022/04/20 04:08:53;;;;;;;26.17;10.45;;;;;;;;;;6147285;29;20028;-76
2022/04/20 04:11:53;;;;;;;39.63;15.80;;;;;;;;;;6129610;29;20591;-76
2022/04/20 04:14:53;;;;;;;36.28;16.65;;;;;;;;;;6146446;29;20258;-76
2022/04/20 04:18:01;;;;;;;42.95;17.95;;;;;;;;;;6146563;29;20027;-76
2022/04/20 04:21:01;;;;;;;41.20;17.42;;;;;;;;;;6146825;29;20471;-76
2022/04/20 04:24:01;;;;;;;39.65;16.25;;;;;;;;;;6146914;28;20022;-76
2022/04/20 04:27:05;;;;;;;39.22;17.50;;;;;;;;;;6128916;29;20039;-76
2022/04/20 04:30:06;;;;;;;35.65;16.42;;;;;;;;;;6146420;29;20093;-76
2022/04/20 04:33:06;;;;;;;40.63;16.90;;;;;;;;;;6146624;29;20019;-76
2022/04/20 04:36:07;;;;;;;37.35;17.83;;;;;;;;;;6146422;29;20031;-76
2022/04/20 04:39:08;;;;;;;38.67;17.67;;;;;;;;;;6128887;29;20468;-76
2022/04/20 04:42:08;;;;;;;38.35;17.10;;;;;;;;;;6146223;29;20047;-76
2022/04/20 04:48:36;;;;;;;35.63;18.77;;;;;;;;;;6146550;29;20031;-76
2022/04/20 04:51:36;;;;;;;45.95;20.60;;;;;;;;;;6144408;29;20038;-76
2022/04/20 04:54:39;;;;;;;47.15;20.90;;;;;;;;;;6145046;28;20019;-76
2022/04/20 04:57:39;;;;;;;49.00;18.40;;;;;;;;;;6145670;29;20028;-76
2022/04/20 05:00:39;;;;;;;42.73;19.47;;;;;;;;;;6146260;29;20023;-76
2022/04/20 05:03:39;;;;;;;42.28;21.02;;;;;;;;;;6146860;28;20612;-76
2022/04/20 05:06:41;;;;;;;57.05;21.25;;;;;;;;;;6149906;29;20459;-76
2022/04/20 05:09:44;;;;;;;;;;;;;;;;;;6146249;29;20058;-76
2022/04/20 05:12:44;;;;;;;48.50;21.23;;;;;;;;;;6149422;29;19911;-76
2022/04/20 05:15:45;;;;;;;45.57;22.40;;;;;;;;;;6149388;29;20038;-76
2022/04/20 05:18:45;;;;;;;49.20;23.27;;;;;;;;;;6149057;28;20306;-76
2022/04/20 05:21:45;;;;;;;42.80;19.90;;;;;;;;;;6149958;29;20031;-76
2022/04/20 05:24:45;;;;;;;44.13;20.58;;;;;;;;;;6131907;28;20525;-76
2022/04/20 05:27:45;;;;;;;43.60;21.27;;;;;;;;;;6145181;28;20051;-76
2022/04/20 05:30:46;;;;;;;39.40;20.40;;;;;;;;;;6149116;28;20045;-76
2022/04/20 05:33:46;;;;;;;46.63;22.42;;;;;;;;;;6150097;29;20023;-77
2022/04/20 05:43:24;;;;;;;48.33;23.58;;;;;;;;;;6145298;29;20027;-77
2022/04/20 05:46:24;;;;;;;53.87;26.43;;;;;;;;;;6147282;29;20046;-76
2022/04/20 05:49:24;;;;;;;62.70;27.38;;;;;;;;;;6147267;29;20626;-76
2022/04/20 05:52:25;;;;;;;59.13;29.98;;;;;;;;;;6147288;29;20031;-76
2022/04/20 05:55:25;;;;;;;65.82;33.60;;;;;;;;;;6145887;28;20035;-76
2022/04/20 05:58:25;;;;;;;64.72;32.47;;;;;;;;;;6148823;29;20085;-77
2022/04/20 06:01:26;;;;;;;70.72;32.38;;;;;;;;;;6146981;29;20067;-77
2022/04/20 06:04:28;;;;;;;65.53;32.60;;;;;;;;;;6146431;29;20031;-77
2022/04/20 06:07:29;;;;;;;68.80;33.95;;;;;;;;;;6149431;29;20051;-77
2022/04/20 06:10:32;;;;;;;75.70;35.73;;;;;;;;;;6146550;29;20078;-77
2022/04/20 06:13:33;;;;;;;66.65;30.25;;;;;;;;;;6147317;29;20031;-77
2022/04/20 06:16:33;;;;;;;70.35;31.48;;;;;;;;;;6141332;28;20024;-78
2022/04/20 06:19:34;;;;;;;70.10;35.42;;;;;;;;;;6125233;29;20030;-79
2022/04/20 06:22:34;;;;;;;76.00;35.25;;;;;;;;;;6144050;29;20106;-78
2022/04/20 06:25:35;;;;;;;80.93;40.33;;;;;;;;;;6148947;28;20035;-78
2022/04/20 06:28:35;;;;;;;83.57;38.20;;;;;;;;;;6131990;29;20551;-78
2022/04/20 06:31:35;;;;;;;82.80;37.67;;;;;;;;;;6130929;29;20714;-79
2022/04/20 06:34:36;;;;;;;85.82;44.80;;;;;;;;;;6147962;29;20178;-79
2022/04/20 06:37:36;;;;;;;86.72;41.55;;;;;;;;;;6142428;28;20475;-79
2022/04/20 06:40:36;;;;;;;93.47;47.30;;;;;;;;;;6128119;29;20038;-80
2022/04/20 06:43:37;;;;;;;95.03;45.28;;;;;;;;;;6125969;29;20057;-79
2022/04/20 06:46:37;;;;;;;83.80;42.53;;;;;;;;;;6143359;29;20023;-80
2022/04/20 06:49:37;;;;;;;95.85;48.65;;;;;;;;;;6143610;28;20693;-80
2022/04/20 06:59:15;;;;;;;79.20;40.42;;;;;;;;;;6149043;29;20498;-81
2022/04/20 07:02:16;;;;;;;84.05;42.92;;;;;;;;;;6145865;29;20089;-81
2022/04/20 07:05:16;;;;;;;88.00;45.95;;;;;;;;;;6146600;29;20539;-82
2022/04/20 07:08:17;;;;;;;88.53;50.67;;;;;;;;;;6131835;28;20454;-82
2022/04/20 07:11:17;;;;;;;80.25;43.42;;;;;;;;;;6145627;29;20489;-83
2022/04/20 07:14:17;;;;;;;93.97;51.55;;;;;;;;;;6131826;29;20110;-83
2022/04/20 07:17:17;;;;;;;94.60;49.25;;;;;;;;;;6124472;29;20035;-83
2022/04/20 07:20:17;;;;;;;87.93;47.80;;;;;;;;;;6126299;29;20028;-84
2022/04/20 07:23:18;;;;;;;84.75;46.22;;;;;;;;;;6116823;29;20503;-84
2022/04/20 07:26:18;;;;;;;87.93;47.75;;;;;;;;;;6137420;28;20026;-85
2022/04/20 07:29:18;;;;;;;86.70;44.92;;;;;;;;;;6131319;29;20035;-85
2022/04/20 07:32:19;;;;;;;86.55;46.42;;;;;;;;;;6148575;29;20027;-86
2022/04/20 07:35:19;;;;;;;90.40;50.20;;;;;;;;;;6129245;29;20487;-87
2022/04/20 07:38:19;;;;;;;91.15;49.42;;;;;;;;;;6126749;29;20078;-88
2022/04/20 07:41:19;;;;;;;86.73;48.17;;;;;;;;;;6130364;29;20110;-88
2022/04/20 07:44:20;;;;;;;83.18;45.03;;;;;;;;;;6147294;29;20259;-89
2022/04/20 07:47:24;;;;;;;82.97;44.92;;;;;;;;;;6129529;29;20022;-89
2022/04/20 07:50:25;;;;;;;80.85;44.03;;;;;;;;;;6147074;29;20019;-88
2022/04/20 07:53:25;;;;;;;85.25;47.83;;;;;;;;;;6122290;29;20468;-88
2022/04/20 07:56:25;;;;;;;75.55;40.75;;;;;;;;;;6128701;28;20019;-88
2022/04/20 07:59:25;;;;;;;70.22;38.95;;;;;;;;;;6128511;29;20086;-87
2022/04/20 08:02:26;;;;;;;78.13;42.80;;;;;;;;;;6147263;29;20503;-86
2022/04/20 08:05:26;;;;;;;81.90;43.63;;;;;;;;;;6129822;29;20948;-86
2022/04/20 08:08:26;;;;;;;78.30;40.95;;;;;;;;;;6147286;29;20062;-85
2022/04/20 08:11:26;;;;;;;75.07;42.28;;;;;;;;;;6146504;29;20082;-85
2022/04/20 08:14:27;;;;;;;83.47;45.92;;;;;;;;;;6146001;29;20027;-84
2022/04/20 08:17:27;;;;;;;76.13;43.70;;;;;;;;;;6142730;29;20407;-83
2022/04/20 08:20:28;;;;;;;74.20;39.60;;;;;;;;;;6145400;29;20439;-83
2022/04/20 08:23:31;;;;;;;67.63;39.60;;;;;;;;;;6143398;29;20264;-83
2022/04/20 08:26:31;;;;;;;68.18;38.60;;;;;;;;;;6141003;28;20491;-83
2022/04/20 08:29:31;;;;;;;66.03;37.08;;;;;;;;;;6127938;29;20048;-82
2022/04/20 08:32:32;;;;;;;58.35;34.47;;;;;;;;;;6145886;29;20487;-82
2022/04/20 08:35:32;;;;;;;66.18;35.75;;;;;;;;;;6127941;29;20047;-82
2022/04/20 08:38:33;;;;;;;55.92;33.33;;;;;;;;;;6138113;29;20082;-82
2022/04/20 08:41:34;;;;;;;53.60;31.88;;;;;;;;;;6145260;29;20098;-82
2022/04/20 08:44:38;;;;;;;56.63;34.03;;;;;;;;;;6127859;29;20403;-81
2022/04/20 08:47:39;;;;;;;47.35;26.25;;;;;;;;;;6139234;29;20023;-81
2022/04/20 08:50:40;;;;;;;65.30;36.60;;;;;;;;;;6142782;29;20046;-81
2022/04/20 08:53:40;;;;;;;53.65;32.65;;;;;;;;;;6109155;29;20029;-81
2022/04/20 09:00:00;;;;;;;49.30;30.17;;;;;;;;;;6145595;29;20043;-81
2022/04/20 09:03:01;;;;;;;50.92;25.95;;;;;;;;;;6144983;28;20019;-80
2022/04/20 09:06:01;;;;;;;50.47;25.17;;;;;;;;;;6144762;28;20398;-80
2022/04/20 09:09:02;;;;;;;50.65;26.88;;;;;;;;;;6143969;29;20029;-80
2022/04/20 09:12:06;;;;;;;43.15;25.23;;;;;;;;;;6141907;29;20061;-80
2022/04/20 09:15:07;;;;;;;40.95;19.48;;;;;;;;;;6145032;28;20563;-80
2022/04/20 09:18:08;;;;;;;60.35;31.90;;;;;;;;;;6109687;29;20107;-80
2022/04/20 09:21:09;;;;;;;59.60;32.20;;;;;;;;;;6121664;29;20023;-81
2022/04/20 09:24:10;;;;;;;56.27;29.30;;;;;;;;;;6125095;28;20383;-81
2022/04/20 09:27:10;;;;;;;45.72;22.45;;;;;;;;;;6120531;29;20122;-81
2022/04/20 09:30:14;;;;;;;49.67;28.73;;;;;;;;;;6121827;28;20163;-80
2022/04/20 09:33:15;;;;;;;47.50;26.83;;;;;;;;;;6120721;29;20280;-80
2022/04/20 09:36:35;;;;;;;44.45;25.27;;;;;;;;;;6120237;29;20028;-80
2022/04/20 09:39:36;;;;;;;35.60;18.38;;;;;;;;;;6120959;29;20074;-81
2022/04/20 09:42:36;;;;;;;39.83;24.40;;;;;;;;;;6116422;29;20416;-80
2022/04/20 09:45:41;;;;;;;46.15;23.10;;;;;;;;;;6118601;29;20707;-80
2022/04/20 09:48:50;;;;;;;43.00;20.02;;;;;;;;;;6121063;29;20435;-80
2022/04/20 09:51:51;;;;;;;30.67;14.77;;;;;;;;;;6125750;29;20040;-80
2022/04/20 09:54:56;;;;;;;43.13;21.70;;;;;;;;;;6123575;29;20034;-80
2022/04/20 09:58:13;;;;;;;30.75;16.13;;;;;;;;;;6114324;29;20465;-80
2022/04/20 10:01:24;;;;;;;35.55;21.52;;;;;;;;;;6117833;29;20031;-80
2022/04/20 10:04:24;;;;;;;45.70;22.40;;;;;;;;;;6120152;29;20052;-81
2022/04/20 10:07:24;;;;;;;29.65;17.88;;;;;;;;;;6123289;29;20041;-81
2022/04/20 10:10:34;;;;;;;33.42;19.45;;;;;;;;;;6123501;28;20026;-81
2022/04/20 10:13:36;;;;;;;27.58;16.05;;;;;;;;;;6124535;29;20103;-81
2022/04/20 10:16:37;;;;;;;31.20;14.80;;;;;;;;;;6120555;29;20016;-81
2022/04/20 10:19:39;;;;;;;38.60;20.05;;;;;;;;;;6126620;29;20028;-80
2022/04/20 10:22:40;;;;;;;27.55;17.27;;;;;;;;;;6126032;29;20027;-80
2022/04/20 10:25:40;;;;;;;35.03;17.70;;;;;;;;;;6121685;29;20019;-80
2022/04/20 10:28:44;;;;;;;28.02;15.82;;;;;;;;;;6146218;29;20515;-80
2022/04/20 10:32:04;;;;;;;42.58;24.80;;;;;;;;;;6148988;29;20166;-80
2022/04/20 10:35:05;;;;;;;41.60;25.75;;;;;;;;;;6149331;29;20402;-80
2022/04/20 10:38:10;;;;;;;27.37;16.73;;;;;;;;;;6148897;29;20479;-80
2022/04/20 10:41:11;;;;;;;28.38;16.30;;;;;;;;;;6132810;28;20019;-80
2022/04/20 10:44:12;;;;;;;47.70;23.67;;;;;;;;;;6132203;29;20042;-81
2022/04/20 10:47:17;;;;;;;28.08;16.08;;;;;;;;;;6131510;29;20036;-80
2022/04/20 10:50:22;;;;;;;35.55;17.35;;;;;;;;;;6131997;29;20031;-80
2022/04/20 10:53:22;;;;;;;38.88;21.10;;;;;;;;;;6148962;29;20035;-80
2022/04/20 10:56:22;;;;;;;42.88;17.48;;;;;;;;;;6148902;28;20027;-80
2022/04/20 10:59:23;;;;;;;23.85;13.57;;;;;;;;;;6130997;29;20066;-80
2022/04/20 11:02:26;;;;;;;71.63;37.87;;;;;;;;;;6148702;28;20023;-81
2022/04/20 11:05:26;;;;;;;54.83;27.15;;;;;;;;;;6131473;29;20262;-80
2022/04/20 11:08:26;;;;;;;41.63;22.92;;;;;;;;;;6147003;29;20439;-81
2022/04/20 11:19:03;;;;;;;33.20;16.90;;;;;;;;;;6128970;29;20103;-80
2022/04/20 11:22:07;;;;;;;24.02;13.85;;;;;;;;;;6146151;29;20016;-79
2022/04/20 11:25:09;;;;;;;46.25;23.38;;;;;;;;;;6147835;28;20090;-80
2022/04/20 11:28:09;;;;;;;35.47;21.10;;;;;;;;;;6136071;28;20047;-80
2022/04/20 11:31:09;;;;;;;26.65;16.33;;;;;;;;;;6147373;29;20282;-80
2022/04/20 11:34:11;;;;;;;33.38;19.08;;;;;;;;;;6129004;28;20030;-79
2022/04/20 11:37:11;;;;;;;36.33;23.05;;;;;;;;;;6120720;29;20043;-81
2022/04/20 11:40:15;;;;;;;27.83;17.20;;;;;;;;;;6129335;29;20499;-81
2022/04/20 11:43:16;;;;;;;41.83;26.92;;;;;;;;;;6145654;29;20786;-80
2022/04/20 11:46:17;;;;;;;21.20;11.90;;;;;;;;;;6146084;29;20030;-80
2022/04/20 11:49:18;;;;;;;35.92;18.92;;;;;;;;;;6146836;28;20541;-81
2022/04/20 11:52:19;;;;;;;35.72;21.15;;;;;;;;;;6131918;28;20096;-80
2022/04/20 11:55:20;;;;;;;28.15;16.17;;;;;;;;;;6146592;28;20029;-80
2022/04/20 11:58:20;;;;;;;27.45;15.85;;;;;;;;;;6147759;29;20015;-80
2022/04/20 12:01:21;;;;;;;36.50;22.13;;;;;;;;;;6147884;29;20490;-81
2022/04/20 12:04:25;;;;;;;26.50;14.60;;;;;;;;;;6148014;29;20262;-80
2022/04/20 12:07:26;;;;;;;30.92;18.92;;;;;;;;;;6147156;29;20467;-80
2022/04/20 12:10:26;;;;;;;30.55;20.02;;;;;;;;;;6129945;29;20019;-80
2022/04/20 12:13:28;;;;;;;33.97;24.13;;;;;;;;;;6147446;28;20391;-81
2022/04/20 12:16:33;;;;;;;33.63;20.83;;;;;;;;;;6143591;28;20291;-80
2022/04/20 12:19:34;;;;;;;32.13;20.10;;;;;;;;;;6114625;29;20039;-80
2022/04/20 12:22:34;;;;;;;35.28;20.42;;;;;;;;;;6146988;29;20087;-80
2022/04/20 12:25:34;;;;;;;41.83;25.13;;;;;;;;;;6144009;28;20138;-80
2022/04/20 12:28:35;;;;;;;36.55;21.25;;;;;;;;;;6130826;29;20039;-80
2022/04/20 12:31:38;;;;;;;27.35;16.55;;;;;;;;;;6130120;29;20119;-81
2022/04/20 12:34:51;;;;;;;35.78;21.38;;;;;;;;;;6129778;29;20114;-80
2022/04/20 12:37:52;;;;;;;40.88;23.05;;;;;;;;;;6146105;29;20082;-80
2022/04/20 12:40:53;;;;;;;38.05;22.20;;;;;;;;;;6145026;29;20035;-80
2022/04/20 12:43:53;;;;;;;36.97;23.25;;;;;;;;;;6130065;29;20019;-81
2022/04/20 12:46:53;;;;;;;35.13;20.30;;;;;;;;;;6146711;29;20027;-80
2022/04/20 12:49:53;;;;;;;22.07;14.47;;;;;;;;;;6133729;28;20069;-80
2022/04/20 12:52:55;;;;;;;30.25;17.85;;;;;;;;;;6122476;29;20275;-80
2022/04/20 13:03:04;;;;;;;40.65;18.42;;;;;;;;;;6146879;29;20023;-80
2022/04/20 13:06:06;;;;;;;47.33;23.08;;;;;;;;;;6141893;28;20139;-80
2022/04/20 13:09:06;;;;;;;32.92;20.20;;;;;;;;;;6141555;29;20427;-80
2022/04/20 13:12:07;;;;;;;31.83;17.55;;;;;;;;;;6139756;29;20031;-80
2022/04/20 13:15:07;;;;;;;36.22;20.55;;;;;;;;;;6129021;29;20119;-80
2022/04/20 13:18:09;;;;;;;29.42;16.25;;;;;;;;;;6147120;29;20047;-80
2022/04/20 13:21:10;;;;;;;27.38;16.65;;;;;;;;;;6130145;29;20510;-81
2022/04/20 13:24:10;;;;;;;27.88;15.90;;;;;;;;;;6150907;28;20015;-80
2022/04/20 13:30:35;;;;;;;24.05;15.43;;;;;;;;;;6151452;29;20055;-80
2022/04/20 13:33:36;;;;;;;28.75;15.38;;;;;;;;;;6151389;29;20110;-80
2022/04/20 13:36:36;;;;;;;34.50;20.20;;;;;;;;;;6134348;29;20030;-80
2022/04/20 13:39:37;;;;;;;30.52;15.05;;;;;;;;;;6150654;28;20031;-80
2022/04/20 13:42:37;;;;;;;22.47;14.83;;;;;;;;;;6149450;29;20023;-80
2022/04/20 13:45:38;;;;;;;30.83;19.23;;;;;;;;;;6149834;29;20282;-80
2022/04/20 13:48:38;;;;;;;42.40;23.92;;;;;;;;;;6150881;29;20034;-80
2022/04/20 13:51:40;;;;;;;27.02;14.75;;;;;;;;;;6150686;29;20508;-80
2022/04/20 13:54:40;;;;;;;38.33;25.02;;;;;;;;;;6150953;28;20023;-80
2022/04/20 13:57:41;;;;;;;26.17;16.93;;;;;;;;;;6149352;29;20042;-80
2022/04/20 14:00:41;;;;;;;29.98;17.27;;;;;;;;;;6132425;29;20271;-80
2022/04/20 14:03:42;;;;;;;31.90;17.70;;;;;;;;;;6149284;29;20074;-80
2022/04/20 14:06:42;;;;;;;26.85;16.30;;;;;;;;;;6131425;29;20482;-80
2022/04/20 14:09:42;;;;;;;26.92;14.43;;;;;;;;;;6148799;29;20382;-80
2022/04/20 14:12:43;;;;;;;22.20;13.53;;;;;;;;;;6128749;29;20089;-80
2022/04/20 14:15:43;;;;;;;26.15;16.92;;;;;;;;;;6144866;29;20268;-80
2022/04/20 14:18:43;;;;;;;27.58;17.35;;;;;;;;;;6139021;29;20100;-80
2022/04/20 14:21:43;;;;;;;23.03;14.43;;;;;;;;;;6147654;29;20023;-80
2022/04/20 14:24:45;;;;;;;22.60;12.75;;;;;;;;;;6131997;28;20255;-80
2022/04/20 14:34:23;;;;;;;17.45;11.98;;;;;;;;;;6147844;29;20471;-80
2022/04/20 14:37:23;;;;;;;23.67;15.13;;;;;;;;;;6132624;29;20070;-80
2022/04/20 14:40:23;;;;;;;27.55;17.60;;;;;;;;;;6141803;28;20604;-80
2022/04/20 14:43:24;;;;;;;32.07;19.13;;;;;;;;;;6124995;28;20019;-80
2022/04/20 14:46:26;;;;;;;32.25;19.77;;;;;;;;;;6147191;29;20291;-81
2022/04/20 14:49:27;;;;;;;24.90;15.82;;;;;;;;;;6147372;29;20502;-80
2022/04/20 14:52:28;;;;;;;25.80;16.65;;;;;;;;;;6148270;29;20023;-81
2022/04/20 14:55:29;;;;;;;31.37;17.80;;;;;;;;;;6130056;29;20462;-80
2022/04/20 14:58:29;;;;;;;44.75;22.17;;;;;;;;;;6148071;28;20031;-80
2022/04/20 15:01:30;;;;;;;59.13;30.73;;;;;;;;;;6148511;29;20035;-80
2022/04/20 15:04:34;;;;;;;68.10;34.30;;;;;;;;;;6146229;29;20286;-81
2022/04/20 15:07:35;;;;;;;45.53;25.15;;;;;;;;;;6148520;29;20047;-81
2022/04/20 15:10:37;;;;;;;40.53;25.10;;;;;;;;;;6131123;29;20025;-80
2022/04/20 15:13:38;;;;;;;38.38;18.77;;;;;;;;;;6149446;29;20454;-80
2022/04/20 15:16:39;;;;;;;57.27;30.23;;;;;;;;;;6119263;29;20099;-80
2022/04/20 15:19:39;;;;;;;60.53;31.25;;;;;;;;;;6147781;29;20522;-80
2022/04/20 15:22:41;;;;;;;80.83;39.40;;;;;;;;;;6148518;29;20019;-80
2022/04/20 15:25:41;;;;;;;70.38;34.00;;;;;;;;;;6139704;28;20665;-80
2022/04/20 15:28:41;;;;;;;60.37;29.17;;;;;;;;;;6148362;29;20416;-80
2022/04/20 15:31:41;;;;;;;66.63;32.73;;;;;;;;;;6147469;29;20282;-80
2022/04/20 15:34:42;;;;;;;61.83;33.97;;;;;;;;;;6147539;29;20274;-80
2022/04/20 15:37:43;;;;;;;65.28;32.83;;;;;;;;;;6147099;29;20476;-80
2022/04/20 15:40:45;;;;;;;52.20;26.73;;;;;;;;;;6148234;29;20015;-80
2022/04/20 15:43:45;;;;;;;38.72;21.40;;;;;;;;;;6140580;29;20039;-80
2022/04/20 15:46:45;;;;;;;51.17;24.23;;;;;;;;;;6146314;28;20503;-80
2022/04/20 15:49:46;;;;;;;42.22;22.60;;;;;;;;;;6145898;29;20028;-80
2022/04/20 15:52:46;;;;;;;58.50;29.85;;;;;;;;;;6146539;29;20023;-80
2022/04/20 16:02:25;;;;;;;39.65;22.25;;;;;;;;;;6146904;29;20488;-80
2022/04/20 16:05:26;;;;;;;58.97;30.45;;;;;;;;;;6146262;29;20019;-80
2022/04/20 16:08:26;;;;;;;60.05;35.17;;;;;;;;;;6133960;28;20027;-81
2022/04/20 16:11:27;;;;;;;46.20;29.48;;;;;;;;;;6126530;29;20026;-80
2022/04/20 16:14:28;;;;;;;48.25;24.17;;;;;;;;;;6145298;29;20098;-81
2022/04/20 16:17:28;;;;;;;60.72;36.08;;;;;;;;;;6144919;29;20019;-80
2022/04/20 16:20:28;;;;;;;67.80;35.77;;;;;;;;;;6145430;29;20050;-80
2022/04/20 16:23:28;;;;;;;41.28;20.50;;;;;;;;;;6128014;29;20246;-80
2022/04/20 16:26:28;;;;;;;49.87;24.67;;;;;;;;;;6144743;28;20067;-80
2022/04/20 16:29:30;;;;;;;92.47;43.50;;;;;;;;;;6128757;29;20294;-80
2022/04/20 16:32:30;;;;;;;87.60;39.75;;;;;;;;;;6146832;29;20786;-81
2022/04/20 16:35:30;;;;;;;60.83;33.45;;;;;;;;;;6145615;29;20027;-80
2022/04/20 16:38:31;;;;;;;45.50;28.90;;;;;;;;;;6128680;29;20341;-80
2022/04/20 16:41:31;;;;;;;49.28;34.33;;;;;;;;;;6145473;29;20066;-80
2022/04/20 16:44:31;;;;;;;51.20;33.97;;;;;;;;;;6143476;28;20007;-80
2022/04/20 16:47:32;;;;;;;40.03;22.02;;;;;;;;;;6144760;29;20024;-80
2022/04/20 16:50:32;;;;;;;61.43;36.17;;;;;;;;;;6125476;28;20031;-80
2022/04/20 16:53:33;;;;;;;41.97;23.73;;;;;;;;;;6122095;29;20267;-80
2022/04/20 16:56:34;;;;;;;36.00;19.95;;;;;;;;;;6143045;28;20106;-80
2022/04/20 16:59:34;;;;;;;53.92;27.70;;;;;;;;;;6130603;29;20030;-80
2022/04/20 17:02:35;;;;;;;52.47;28.90;;;;;;;;;;6150854;29;20391;-80
2022/04/20 17:05:35;;;;;;;51.00;27.92;;;;;;;;;;6150295;29;20026;-80
2022/04/20 17:08:35;;;;;;;51.87;31.07;;;;;;;;;;6132800;29;20031;-80
2022/04/20 17:11:36;;;;;;;62.72;32.17;;;;;;;;;;6132992;29;20273;-81
2022/04/20 17:14:36;;;;;;;42.58;24.45;;;;;;;;;;6146892;29;20041;-81
2022/04/20 17:17:36;;;;;;;48.35;28.17;;;;;;;;;;6132069;28;20039;-81
2022/04/20 17:27:24;;;;;;;30.67;17.27;;;;;;;;;;6149506;29;20047;-80
2022/04/20 17:30:25;;;;;;;31.42;18.48;;;;;;;;;;6131272;29;20050;-81
2022/04/20 17:33:25;;;;;;;40.53;23.00;;;;;;;;;;6145958;28;20082;-81
2022/04/20 17:36:39;;;;;;;33.92;17.92;;;;;;;;;;6149585;29;20031;-81
2022/04/20 17:39:39;;;;;;;35.47;20.98;;;;;;;;;;6149794;29;20038;-81
2022/04/20 17:42:41;;;;;;;37.13;21.23;;;;;;;;;;6150092;29;20050;-81
2022/04/20 17:45:41;;;;;;;37.10;21.93;;;;;;;;;;6150974;29;20028;-81
2022/04/20 17:48:41;;;;;;;30.80;17.73;;;;;;;;;;6150973;29;20301;-80
2022/04/20 17:51:42;;;;;;;32.08;18.45;;;;;;;;;;6146624;29;20027;-81
2022/04/20 17:54:42;;;;;;;37.25;18.70;;;;;;;;;;6151422;28;20077;-81
2022/04/20 17:57:43;;;;;;;32.15;18.50;;;;;;;;;;6128149;29;20035;-80
2022/04/20 18:00:44;;;;;;;36.28;19.02;;;;;;;;;;6148051;28;20451;-80
2022/04/20 18:03:46;;;;;;;35.17;20.10;;;;;;;;;;6132534;29;20024;-80
2022/04/20 18:06:46;;;;;;;;;;;;;;;;;;6148682;29;20115;-80
2022/04/20 18:09:48;;;;;;;31.35;19.08;;;;;;;;;;6148015;28;19929;-80
2022/04/20 18:12:48;;;;;;;28.42;17.30;;;;;;;;;;6149302;29;20023;-81
2022/04/20 18:15:49;;;;;;;29.70;19.55;;;;;;;;;;6150108;29;20031;-80
2022/04/20 18:18:49;;;;;;;36.75;21.75;;;;;;;;;;6141794;28;20034;-80
2022/04/20 18:21:49;;;;;;;35.23;20.80;;;;;;;;;;6133893;28;20015;-80
2022/04/20 18:24:51;;;;;;;35.10;21.53;;;;;;;;;;6148890;29;20266;-81
2022/04/20 18:27:51;;;;;;;38.22;22.35;;;;;;;;;;6130596;29;20659;-81
2022/04/20 18:30:51;;;;;;;44.85;27.63;;;;;;;;;;6146391;29;20023;-81
2022/04/20 18:33:52;;;;;;;38.38;25.23;;;;;;;;;;6141561;28;20118;-81
2022/04/20 18:36:52;;;;;;;40.72;23.92;;;;;;;;;;6135375;29;20118;-81
2022/04/20 18:39:52;;;;;;;43.35;24.02;;;;;;;;;;6146735;29;20534;-81